My Meet Scores
Ainsley Mendelson, Y.W.C.A Tumblettes-Tumblers - MyMeetScores.com
Top100 | Top Teams | Upcoming Meets | Completed Meets | Latest | Add Scores | Help| Support | Bookmark and Share

Ainsley Mendelson, Y.W.C.A Tumblettes-Tumblers
Personal Bests
LevelVault BarsBeamFloorAA
89.3509.000 9.1258.95035.975
99.1758.475 8.5258.77533.900
Meet Scores
Date Meet Team Session Level Division Vault Bars Beam Floor AA
2019-03-15 2019 New York Level 9/10/Xcel State Championship Y.W.C.A Tumblettes-Tumblers 07A 9 Sr C 9.175 12T 8.250 18 7.900 21 7.500 22 32.825 21
2019-02-22 Heartland Spring Classic Y.W.C.A Tumblettes-Tumblers 3 9 Older 8.375 11 8.475 5 8.525 8 8.525 8 33.900 7
2019-01-25 Kinetic Kids Invitational 2019 Y.W.C.A Tumblettes-Tumblers 7 9 All 9.000 1 7.750 1 7.075 1 8.300 1 32.125 1
2019-01-11 2019 New Years Blast Y.W.C.A Tumblettes-Tumblers 4 9 Senior 8.525 7 7.600 8 7.450 11 8.150 9 31.725 9
2018-03-16 2018 New York Level 9/10/Xcel State Championships Y.W.C.A Tumblettes-Tumblers J01 9 Sr B 8.700 11T 8.050 8 8.275 6T 8.025 14T 33.050 11
2018-03-01 Holiday Costume Cup 2018 Y.W.C.A Tumblettes-Tumblers 2 9 All 8.700 4 6.000 3 8.275 2 8.775 3 31.750 3
2018-01-20 Kindlemann Winter Classic Y.W.C.A Tumblettes-Tumblers 2 9 senior 8.700 6 7.250 10 8.500 4T 8.350 3 32.800 8
2017-12-02 I Love Gymnastics Y.W.C.A Tumblettes-Tumblers 6 9 Senior 8.950 1 6.250 2T 7.300 3 8.350 1 30.850 2
2017-11-17 2017 Judges Cup Balloon Classic Y.W.C.A Tumblettes-Tumblers 1 9 15+ 8.675 26T 7.600 29 7.850 30 8.100 30T 32.225 28
2017-03-31 2017 New York Level 7/8 States Y.W.C.A Tumblettes-Tumblers 85 8 Sr B 9.350 5 8.900 5 9.125 1 8.600 18 35.975 3
2017-03-10 Flippin' Into Spring Y.W.C.A Tumblettes-Tumblers 6 8 Older 9.200 1 8.400 1 9.125 2 8.550 4 35.275 1
2017-03-03 Long Island Classic Y.W.C.A Tumblettes-Tumblers 5 8 Older 8.975 3 8.100 3 8.450 10 8.500 11 34.025 5
2017-02-03 Popstar Invitational Y.W.C.A Tumblettes-Tumblers 3 8 Older 8.175 10 8.100 3 8.850 2 8.725 10T 33.850 4
2017-01-13 New York Celebration Y.W.C.A Tumblettes-Tumblers 06 8 Older 8.825 3 8.350 4 8.725 4 8.700 4* 34.600 3T
2016-12-17 Solstice Celebration Y.W.C.A Tumblettes-Tumblers 6 8 Older 9.000 1 8.875 2 8.750 2 8.625 7 35.250 1
2016-12-02 Kick Off Classic Y.W.C.A Tumblettes-Tumblers 3 8 Older 9.025 2 8.475 5 8.300 7 8.950 3 34.750 3
2016-04-01 2016 New York Level 7 and 8 State Championships Y.W.C.A Tumblettes-Tumblers 02 8 Jr E 8.675 8 8.650 8 8.500 9 8.400 15 34.225 9
2016-03-04 Heartland Spring Classic Y.W.C.A Tumblettes-Tumblers 8 8 13-14 8.825 5 9.000 3 8.550 5 8.600 10 34.975 1
2016-02-12 Sweetheart Invitational Y.W.C.A Tumblettes-Tumblers 11 8 Jr. B 9.100 1 8.200 5 8.950 4 8.900 9T 35.150 3
2016-01-29 Team Challenge 2016 Y.W.C.A Tumblettes-Tumblers 2R 8 Inter 8.550 5T 7.925 4 8.600 6 8.875 6 33.950 5
2016-01-15 FGA Popstar Invitational Y.W.C.A Tumblettes-Tumblers 4 8 All 8.500 4 8.150 1 9.100 3 8.825 10 34.575 1
2015-12-19 Solstice Celebration Y.W.C.A Tumblettes-Tumblers 4 8 Younger 8.600 1 8.500 2 7.725 3 8.275 5 33.100 2
2015-12-04 Kick Off Invite Y.W.C.A Tumblettes-Tumblers 08 8 Middle 8.150 14 8.450 8 7.750 12 8.250 15 32.600 13
2015-04-10 2015 New York Level 7, 8 States Y.W.C.A Tumblettes-Tumblers 2 8 13 Sr 8.250 14 7.375 17 8.050 16 8.100 23 31.775 21T
2015-02-21 2015 Harlem Invitational Y.W.C.A Tumblettes-Tumblers 4 8 15 & Under 8.025 6 7.600 4 8.775 2 8.250 8 32.650 4
2015-02-06 FGA Popstar Invitational Y.W.C.A Tumblettes-Tumblers 8 8 All 8.600 14T 8.300 9T 7.500 18 8.600 14 33.000 13
Get your scores on
a t-shirt, pin, or hoodie

www.lazysuits.com